sensor_id;sensor_type;location;lat;lon;timestamp;pressure;altitude;pressure_sealevel;temperature;humidity
40948;BME280;49382;-25.924;28.194;2023-02-03T00:01:25;85273.83;;;21.66;48.11
40948;BME280;49382;-25.924;28.194;2023-02-03T00:03:50;85275.82;;;21.99;47.41
40948;BME280;49382;-25.924;28.194;2023-02-03T00:06:16;85273.78;;;21.33;48.33
40948;BME280;49382;-25.924;28.194;2023-02-03T00:08:42;85272.91;;;21.66;48.67
40948;BME280;49382;-25.924;28.194;2023-02-03T00:11:08;85269.56;;;21.75;47.74
40948;BME280;49382;-25.924;28.194;2023-02-03T00:13:34;85264.76;;;21.84;48.62
40948;BME280;49382;-25.924;28.194;2023-02-03T00:15:58;85271.23;;;22.00;47.73
40948;BME280;49382;-25.924;28.194;2023-02-03T00:18:24;85274.85;;;21.39;48.23
40948;BME280;49382;-25.924;28.194;2023-02-03T00:20:50;85278.31;;;22.13;47.37
40948;BME280;49382;-25.924;28.194;2023-02-03T00:23:16;85278.91;;;22.06;46.98
40948;BME280;49382;-25.924;28.194;2023-02-03T00:25:41;85271.65;;;23.26;45.09
40948;BME280;49382;-25.924;28.194;2023-02-03T00:28:07;85275.14;;;22.33;47.21
40948;BME280;49382;-25.924;28.194;2023-02-03T00:30:34;85276.90;;;22.55;46.39
40948;BME280;49382;-25.924;28.194;2023-02-03T00:32:59;85271.11;;;22.54;46.23
40948;BME280;49382;-25.924;28.194;2023-02-03T00:35:24;85263.69;;;21.96;47.52
40948;BME280;49382;-25.924;28.194;2023-02-03T00:37:51;85260.45;;;21.50;49.89
40948;BME280;49382;-25.924;28.194;2023-02-03T00:40:14;85260.72;;;21.18;49.11
40948;BME280;49382;-25.924;28.194;2023-02-03T00:42:39;85257.05;;;21.70;48.59
40948;BME280;49382;-25.924;28.194;2023-02-03T00:45:05;85255.86;;;22.14;47.33
40948;BME280;49382;-25.924;28.194;2023-02-03T00:47:29;85256.26;;;22.46;47.09
40948;BME280;49382;-25.924;28.194;2023-02-03T00:49:54;85247.58;;;21.91;48.02
40948;BME280;49382;-25.924;28.194;2023-02-03T00:52:20;85245.70;;;21.74;48.11
40948;BME280;49382;-25.924;28.194;2023-02-03T00:54:45;85244.23;;;21.89;48.67
40948;BME280;49382;-25.924;28.194;2023-02-03T00:57:10;85244.57;;;21.34;49.31
40948;BME280;49382;-25.924;28.194;2023-02-03T00:59:35;85236.12;;;23.25;46.49
40948;BME280;49382;-25.924;28.194;2023-02-03T01:02:01;85241.17;;;22.71;46.74
40948;BME280;49382;-25.924;28.194;2023-02-03T01:04:27;85239.62;;;22.86;46.23
40948;BME280;49382;-25.924;28.194;2023-02-03T01:06:53;85237.13;;;22.47;47.04
40948;BME280;49382;-25.924;28.194;2023-02-03T01:09:19;85231.05;;;23.45;44.87
40948;BME280;49382;-25.924;28.194;2023-02-03T01:11:44;85225.18;;;23.44;45.11
40948;BME280;49382;-25.924;28.194;2023-02-03T01:14:10;85217.46;;;22.80;46.06
40948;BME280;49382;-25.924;28.194;2023-02-03T01:16:35;85222.05;;;22.30;47.16
40948;BME280;49382;-25.924;28.194;2023-02-03T01:19:01;85221.52;;;21.95;47.82
40948;BME280;49382;-25.924;28.194;2023-02-03T01:21:27;85224.03;;;21.79;48.78
40948;BME280;49382;-25.924;28.194;2023-02-03T01:23:54;85225.62;;;21.25;49.97
40948;BME280;49382;-25.924;28.194;2023-02-03T01:26:20;85232.48;;;21.85;48.18
40948;BME280;49382;-25.924;28.194;2023-02-03T01:28:49;85234.27;;;21.66;49.06
40948;BME280;49382;-25.924;28.194;2023-02-03T01:31:11;85235.19;;;22.18;47.64
40948;BME280;49382;-25.924;28.194;2023-02-03T01:33:35;85229.60;;;23.29;45.48
40948;BME280;49382;-25.924;28.194;2023-02-03T01:36:02;85224.60;;;22.91;46.00
40948;BME280;49382;-25.924;28.194;2023-02-03T01:38:27;85229.24;;;22.15;47.34
40948;BME280;49382;-25.924;28.194;2023-02-03T01:40:52;85227.54;;;22.46;46.55
40948;BME280;49382;-25.924;28.194;2023-02-03T01:45:45;85225.83;;;22.26;47.03
40948;BME280;49382;-25.924;28.194;2023-02-03T01:48:10;85220.52;;;22.96;45.66
40948;BME280;49382;-25.924;28.194;2023-02-03T01:50:36;85222.57;;;21.68;47.93
40948;BME280;49382;-25.924;28.194;2023-02-03T01:53:03;85220.69;;;21.92;47.53
40948;BME280;49382;-25.924;28.194;2023-02-03T01:55:30;85217.20;;;21.92;47.43
40948;BME280;49382;-25.924;28.194;2023-02-03T01:57:57;85216.48;;;21.52;48.07
40948;BME280;49382;-25.924;28.194;2023-02-03T02:00:19;85215.15;;;22.17;46.88
40948;BME280;49382;-25.924;28.194;2023-02-03T02:02:46;85205.35;;;22.81;45.63
40948;BME280;49382;-25.924;28.194;2023-02-03T02:05:15;85209.03;;;21.58;47.89
40948;BME280;49382;-25.924;28.194;2023-02-03T02:07:37;85209.03;;;22.81;46.33
40948;BME280;49382;-25.924;28.194;2023-02-03T02:10:03;85210.71;;;21.18;48.73
40948;BME280;49382;-25.924;28.194;2023-02-03T02:12:28;85216.28;;;22.36;46.74
40948;BME280;49382;-25.924;28.194;2023-02-03T02:14:54;85221.58;;;21.59;48.23
40948;BME280;49382;-25.924;28.194;2023-02-03T02:17:33;85224.31;;;22.56;47.37
40948;BME280;49382;-25.924;28.194;2023-02-03T02:22:16;85216.27;;;21.78;48.01
40948;BME280;49382;-25.924;28.194;2023-02-03T02:27:06;85209.14;;;21.81;48.80
40948;BME280;49382;-25.924;28.194;2023-02-03T02:32:03;85210.16;;;24.45;44.21
40948;BME280;49382;-25.924;28.194;2023-02-03T02:34:24;85218.50;;;21.30;48.74
40948;BME280;49382;-25.924;28.194;2023-02-03T02:36:53;85223.57;;;22.65;46.34
40948;BME280;49382;-25.924;28.194;2023-02-03T02:39:16;85222.29;;;22.86;46.18
40948;BME280;49382;-25.924;28.194;2023-02-03T02:41:42;85236.68;;;22.53;46.56
40948;BME280;49382;-25.924;28.194;2023-02-03T02:44:08;85234.30;;;22.14;47.18
40948;BME280;49382;-25.924;28.194;2023-02-03T02:46:32;85230.20;;;22.63;47.02
40948;BME280;49382;-25.924;28.194;2023-02-03T02:48:58;85228.50;;;22.14;48.19
40948;BME280;49382;-25.924;28.194;2023-02-03T02:51:22;85231.09;;;21.46;48.67
40948;BME280;49382;-25.924;28.194;2023-02-03T02:53:50;85239.56;;;21.42;48.10
40948;BME280;49382;-25.924;28.194;2023-02-03T02:56:13;85248.21;;;21.63;48.03
40948;BME280;49382;-25.924;28.194;2023-02-03T02:58:39;85254.56;;;22.11;47.18
40948;BME280;49382;-25.924;28.194;2023-02-03T03:01:04;85260.10;;;22.28;47.14
40948;BME280;49382;-25.924;28.194;2023-02-03T03:03:29;85264.61;;;22.05;47.62
40948;BME280;49382;-25.924;28.194;2023-02-03T03:05:57;85264.93;;;22.20;48.37
40948;BME280;49382;-25.924;28.194;2023-02-03T03:08:28;85264.08;;;22.81;46.53
40948;BME280;49382;-25.924;28.194;2023-02-03T03:10:47;85262.87;;;21.67;49.16
40948;BME280;49382;-25.924;28.194;2023-02-03T03:13:15;85261.54;;;21.75;49.18
40948;BME280;49382;-25.924;28.194;2023-02-03T03:15:38;85260.60;;;21.86;48.32
40948;BME280;49382;-25.924;28.194;2023-02-03T03:18:06;85261.46;;;21.84;48.16
40948;BME280;49382;-25.924;28.194;2023-02-03T03:20:29;85261.49;;;21.89;48.60
40948;BME280;49382;-25.924;28.194;2023-02-03T03:22:57;85259.45;;;22.04;48.74
40948;BME280;49382;-25.924;28.194;2023-02-03T03:25:24;85260.67;;;21.79;49.22
40948;BME280;49382;-25.924;28.194;2023-02-03T03:27:49;85261.34;;;22.92;46.41
40948;BME280;49382;-25.924;28.194;2023-02-03T03:30:15;85256.43;;;21.64;48.83
40948;BME280;49382;-25.924;28.194;2023-02-03T03:32:37;85255.24;;;21.87;48.62
40948;BME280;49382;-25.924;28.194;2023-02-03T03:35:03;85260.42;;;21.64;48.68
40948;BME280;49382;-25.924;28.194;2023-02-03T03:37:33;85263.31;;;20.72;51.48
40948;BME280;49382;-25.924;28.194;2023-02-03T03:39:55;85267.26;;;21.41;49.70
40948;BME280;49382;-25.924;28.194;2023-02-03T03:42:23;85275.21;;;22.24;47.76
40948;BME280;49382;-25.924;28.194;2023-02-03T03:44:50;85279.19;;;21.53;49.43
40948;BME280;49382;-25.924;28.194;2023-02-03T03:47:15;85283.24;;;21.55;49.47
40948;BME280;49382;-25.924;28.194;2023-02-03T03:49:38;85286.49;;;21.95;48.67
40948;BME280;49382;-25.924;28.194;2023-02-03T03:52:05;85291.05;;;21.17;50.14
40948;BME280;49382;-25.924;28.194;2023-02-03T03:54:29;85292.29;;;21.42;49.92
40948;BME280;49382;-25.924;28.194;2023-02-03T03:56:58;85292.33;;;20.80;50.35
40948;BME280;49382;-25.924;28.194;2023-02-03T03:59:21;85297.46;;;22.49;47.48
40948;BME280;49382;-25.924;28.194;2023-02-03T04:01:46;85305.52;;;22.86;46.48
40948;BME280;49382;-25.924;28.194;2023-02-03T04:04:11;85312.54;;;21.23;49.41
40948;BME280;49382;-25.924;28.194;2023-02-03T04:06:37;85315.63;;;21.57;48.78
40948;BME280;49382;-25.924;28.194;2023-02-03T04:09:02;85312.49;;;22.33;47.96
40948;BME280;49382;-25.924;28.194;2023-02-03T04:11:27;85312.49;;;22.25;48.24
40948;BME280;49382;-25.924;28.194;2023-02-03T04:13:53;85315.87;;;22.40;48.14
40948;BME280;49382;-25.924;28.194;2023-02-03T04:16:19;85316.35;;;22.62;47.67
40948;BME280;49382;-25.924;28.194;2023-02-03T04:18:45;85314.01;;;22.61;47.06
40948;BME280;49382;-25.924;28.194;2023-02-03T04:21:10;85317.28;;;22.55;47.71
40948;BME280;49382;-25.924;28.194;2023-02-03T04:23:35;85319.54;;;22.87;46.75
40948;BME280;49382;-25.924;28.194;2023-02-03T04:26:01;85324.90;;;21.73;48.88
40948;BME280;49382;-25.924;28.194;2023-02-03T04:28:25;85327.22;;;21.75;48.96
40948;BME280;49382;-25.924;28.194;2023-02-03T04:30:51;85328.27;;;21.81;49.95
40948;BME280;49382;-25.924;28.194;2023-02-03T04:33:16;85328.50;;;22.43;48.64
40948;BME280;49382;-25.924;28.194;2023-02-03T04:35:41;85327.63;;;21.85;50.13
40948;BME280;49382;-25.924;28.194;2023-02-03T04:38:07;85322.44;;;22.04;48.58
40948;BME280;49382;-25.924;28.194;2023-02-03T04:40:32;85323.19;;;23.27;46.47
40948;BME280;49382;-25.924;28.194;2023-02-03T04:42:57;85321.64;;;23.58;45.88
40948;BME280;49382;-25.924;28.194;2023-02-03T04:45:23;85319.66;;;22.13;48.44
40948;BME280;49382;-25.924;28.194;2023-02-03T04:47:51;85322.47;;;22.87;47.20
40948;BME280;49382;-25.924;28.194;2023-02-03T04:50:14;85327.56;;;22.74;47.19
40948;BME280;49382;-25.924;28.194;2023-02-03T04:52:40;85336.76;;;21.73;48.93
40948;BME280;49382;-25.924;28.194;2023-02-03T04:55:06;85347.15;;;22.17;49.69
40948;BME280;49382;-25.924;28.194;2023-02-03T04:57:32;85346.18;;;22.72;47.16
40948;BME280;49382;-25.924;28.194;2023-02-03T04:59:57;85343.27;;;22.74;47.15
40948;BME280;49382;-25.924;28.194;2023-02-03T05:02:23;85345.47;;;24.09;44.55
40948;BME280;49382;-25.924;28.194;2023-02-03T05:04:49;85353.31;;;23.69;45.34
40948;BME280;49382;-25.924;28.194;2023-02-03T05:07:15;85356.11;;;22.51;47.55
40948;BME280;49382;-25.924;28.194;2023-02-03T05:09:40;85361.43;;;23.98;45.08
40948;BME280;49382;-25.924;28.194;2023-02-03T05:12:06;85362.81;;;23.01;46.23
40948;BME280;49382;-25.924;28.194;2023-02-03T05:14:31;85363.71;;;23.39;45.37
40948;BME280;49382;-25.924;28.194;2023-02-03T05:16:57;85365.60;;;23.75;45.41
40948;BME280;49382;-25.924;28.194;2023-02-03T05:19:23;85365.09;;;23.42;46.38
40948;BME280;49382;-25.924;28.194;2023-02-03T05:21:49;85360.92;;;24.29;44.50
40948;BME280;49382;-25.924;28.194;2023-02-03T05:24:14;85366.37;;;22.77;46.76
40948;BME280;49382;-25.924;28.194;2023-02-03T05:26:40;85369.12;;;22.72;47.37
40948;BME280;49382;-25.924;28.194;2023-02-03T05:29:06;85371.45;;;23.08;46.72
40948;BME280;49382;-25.924;28.194;2023-02-03T05:31:32;85374.19;;;23.48;46.03
40948;BME280;49382;-25.924;28.194;2023-02-03T05:33:57;85372.67;;;23.23;45.87
40948;BME280;49382;-25.924;28.194;2023-02-03T05:36:23;85372.43;;;23.39;46.30
40948;BME280;49382;-25.924;28.194;2023-02-03T05:38:49;85371.62;;;24.07;45.06
40948;BME280;49382;-25.924;28.194;2023-02-03T05:41:15;85362.29;;;24.04;44.82
40948;BME280;49382;-25.924;28.194;2023-02-03T05:43:41;85360.17;;;23.56;46.27
40948;BME280;49382;-25.924;28.194;2023-02-03T05:46:07;85358.18;;;24.21;44.73
40948;BME280;49382;-25.924;28.194;2023-02-03T05:48:33;85361.74;;;23.01;46.64
40948;BME280;49382;-25.924;28.194;2023-02-03T05:50:58;85357.50;;;24.45;44.05
40948;BME280;49382;-25.924;28.194;2023-02-03T05:53:24;85354.56;;;22.68;48.04
40948;BME280;49382;-25.924;28.194;2023-02-03T05:55:49;85356.27;;;23.18;47.87
40948;BME280;49382;-25.924;28.194;2023-02-03T05:58:15;85355.84;;;22.46;49.04
40948;BME280;49382;-25.924;28.194;2023-02-03T06:00:41;85360.95;;;23.25;48.27
40948;BME280;49382;-25.924;28.194;2023-02-03T06:03:07;85361.36;;;23.48;47.85
40948;BME280;49382;-25.924;28.194;2023-02-03T06:05:34;85367.68;;;23.48;46.84
40948;BME280;49382;-25.924;28.194;2023-02-03T06:07:59;85369.69;;;23.91;45.91
40948;BME280;49382;-25.924;28.194;2023-02-03T06:10:24;85363.38;;;24.25;45.11
40948;BME280;49382;-25.924;28.194;2023-02-03T06:12:50;85366.59;;;23.46;46.27
40948;BME280;49382;-25.924;28.194;2023-02-03T06:15:16;85359.72;;;24.30;45.73
40948;BME280;49382;-25.924;28.194;2023-02-03T06:17:44;85368.06;;;23.16;48.48
40948;BME280;49382;-25.924;28.194;2023-02-03T06:20:09;85366.46;;;24.39;45.22
40948;BME280;49382;-25.924;28.194;2023-02-03T06:22:33;85360.52;;;23.79;45.52
40948;BME280;49382;-25.924;28.194;2023-02-03T06:24:58;85366.95;;;23.61;47.02
40948;BME280;49382;-25.924;28.194;2023-02-03T06:27:24;85366.60;;;23.38;47.25
40948;BME280;49382;-25.924;28.194;2023-02-03T06:29:50;85367.35;;;23.11;47.39
40948;BME280;49382;-25.924;28.194;2023-02-03T06:32:16;85369.09;;;25.14;43.89
40948;BME280;49382;-25.924;28.194;2023-02-03T06:34:41;85369.98;;;24.80;43.65
40948;BME280;49382;-25.924;28.194;2023-02-03T06:37:07;85376.04;;;23.38;46.77
40948;BME280;49382;-25.924;28.194;2023-02-03T06:39:33;85367.33;;;23.97;44.42
40948;BME280;49382;-25.924;28.194;2023-02-03T06:41:58;85367.19;;;24.67;43.84
40948;BME280;49382;-25.924;28.194;2023-02-03T06:44:24;85372.18;;;24.56;44.18
40948;BME280;49382;-25.924;28.194;2023-02-03T06:46:51;85373.71;;;25.78;42.08
40948;BME280;49382;-25.924;28.194;2023-02-03T06:49:16;85375.03;;;23.08;45.71
40948;BME280;49382;-25.924;28.194;2023-02-03T06:51:41;85369.04;;;24.19;45.05
40948;BME280;49382;-25.924;28.194;2023-02-03T06:54:07;85370.05;;;24.78;44.52
40948;BME280;49382;-25.924;28.194;2023-02-03T06:56:33;85363.54;;;24.38;45.57
40948;BME280;49382;-25.924;28.194;2023-02-03T06:58:59;85361.77;;;25.38;42.45
40948;BME280;49382;-25.924;28.194;2023-02-03T07:01:24;85363.85;;;24.24;44.83
40948;BME280;49382;-25.924;28.194;2023-02-03T07:03:50;85364.19;;;24.28;46.05
40948;BME280;49382;-25.924;28.194;2023-02-03T07:06:16;85363.65;;;24.67;44.34
40948;BME280;49382;-25.924;28.194;2023-02-03T07:08:41;85365.13;;;25.58;42.01
40948;BME280;49382;-25.924;28.194;2023-02-03T07:11:07;85359.36;;;25.25;43.05
40948;BME280;49382;-25.924;28.194;2023-02-03T07:13:32;85363.08;;;25.44;43.14
40948;BME280;49382;-25.924;28.194;2023-02-03T07:15:57;85361.69;;;26.69;40.57
40948;BME280;49382;-25.924;28.194;2023-02-03T07:18:23;85357.49;;;26.14;41.73
40948;BME280;49382;-25.924;28.194;2023-02-03T07:20:48;85356.50;;;24.74;43.59
40948;BME280;49382;-25.924;28.194;2023-02-03T07:23:13;85357.77;;;26.19;41.51
40948;BME280;49382;-25.924;28.194;2023-02-03T07:25:39;85358.59;;;25.58;42.28
40948;BME280;49382;-25.924;28.194;2023-02-03T07:28:05;85354.69;;;24.08;45.98
40948;BME280;49382;-25.924;28.194;2023-02-03T07:30:30;85358.09;;;24.44;45.10
40948;BME280;49382;-25.924;28.194;2023-02-03T07:32:55;85358.20;;;24.04;45.91
40948;BME280;49382;-25.924;28.194;2023-02-03T07:35:21;85358.05;;;24.17;44.90
40948;BME280;49382;-25.924;28.194;2023-02-03T07:37:46;85354.51;;;24.08;47.05
40948;BME280;49382;-25.924;28.194;2023-02-03T07:40:13;85352.75;;;23.72;49.15
40948;BME280;49382;-25.924;28.194;2023-02-03T07:42:40;85352.46;;;23.88;46.07
40948;BME280;49382;-25.924;28.194;2023-02-03T07:45:02;85352.28;;;23.87;46.30
40948;BME280;49382;-25.924;28.194;2023-02-03T07:47:27;85353.08;;;23.71;47.17
40948;BME280;49382;-25.924;28.194;2023-02-03T07:49:52;85359.61;;;23.76;47.84
40948;BME280;49382;-25.924;28.194;2023-02-03T07:52:17;85353.86;;;24.38;46.06
40948;BME280;49382;-25.924;28.194;2023-02-03T07:54:43;85352.40;;;25.08;44.39
40948;BME280;49382;-25.924;28.194;2023-02-03T07:57:08;85345.21;;;25.15;44.82
40948;BME280;49382;-25.924;28.194;2023-02-03T07:59:34;85335.55;;;24.26;46.20
40948;BME280;49382;-25.924;28.194;2023-02-03T08:01:59;85327.14;;;23.80;46.44
40948;BME280;49382;-25.924;28.194;2023-02-03T08:04:24;85325.03;;;24.17;45.80
40948;BME280;49382;-25.924;28.194;2023-02-03T08:06:50;85322.55;;;24.63;45.00
40948;BME280;49382;-25.924;28.194;2023-02-03T08:09:16;85321.90;;;24.55;45.35
40948;BME280;49382;-25.924;28.194;2023-02-03T08:11:41;85321.12;;;24.42;45.50
40948;BME280;49382;-25.924;28.194;2023-02-03T08:14:06;85318.66;;;24.43;45.16
40948;BME280;49382;-25.924;28.194;2023-02-03T08:16:31;85317.99;;;24.45;44.01
40948;BME280;49382;-25.924;28.194;2023-02-03T08:18:56;85317.93;;;25.15;44.67
40948;BME280;49382;-25.924;28.194;2023-02-03T08:21:22;85315.48;;;24.96;44.31
40948;BME280;49382;-25.924;28.194;2023-02-03T08:23:48;85310.90;;;25.51;43.84
40948;BME280;49382;-25.924;28.194;2023-02-03T08:26:14;85303.73;;;26.49;41.54
40948;BME280;49382;-25.924;28.194;2023-02-03T08:28:40;85304.47;;;24.91;44.30
40948;BME280;49382;-25.924;28.194;2023-02-03T08:31:10;85302.95;;;26.00;43.27
40948;BME280;49382;-25.924;28.194;2023-02-03T08:33:31;85301.29;;;25.79;43.08
40948;BME280;49382;-25.924;28.194;2023-02-03T08:35:57;85300.29;;;24.59;42.40
40948;BME280;49382;-25.924;28.194;2023-02-03T08:38:23;85298.26;;;26.25;40.46
40948;BME280;49382;-25.924;28.194;2023-02-03T08:40:48;85300.53;;;25.98;41.85
40948;BME280;49382;-25.924;28.194;2023-02-03T08:43:14;85296.91;;;26.55;40.83
40948;BME280;49382;-25.924;28.194;2023-02-03T08:45:40;85292.82;;;26.09;41.72
40948;BME280;49382;-25.924;28.194;2023-02-03T08:48:06;85292.80;;;26.68;42.41
40948;BME280;49382;-25.924;28.194;2023-02-03T08:50:31;85288.06;;;26.18;41.02
40948;BME280;49382;-25.924;28.194;2023-02-03T08:52:57;85286.24;;;27.34;39.53
40948;BME280;49382;-25.924;28.194;2023-02-03T08:55:23;85287.54;;;28.54;38.42
40948;BME280;49382;-25.924;28.194;2023-02-03T08:57:48;85285.53;;;28.82;37.66
40948;BME280;49382;-25.924;28.194;2023-02-03T09:00:15;85280.55;;;27.70;38.81
40948;BME280;49382;-25.924;28.194;2023-02-03T09:02:40;85277.11;;;27.61;38.04
40948;BME280;49382;-25.924;28.194;2023-02-03T09:05:06;85273.53;;;25.93;40.79
40948;BME280;49382;-25.924;28.194;2023-02-03T09:07:31;85273.89;;;26.29;39.76
40948;BME280;49382;-25.924;28.194;2023-02-03T09:09:57;85279.00;;;28.18;37.07
40948;BME280;49382;-25.924;28.194;2023-02-03T09:12:23;85273.34;;;27.91;36.72
40948;BME280;49382;-25.924;28.194;2023-02-03T09:14:48;85272.75;;;28.74;36.03
40948;BME280;49382;-25.924;28.194;2023-02-03T09:17:14;85263.62;;;27.50;36.27
40948;BME280;49382;-25.924;28.194;2023-02-03T09:19:40;85258.03;;;25.80;38.89
40948;BME280;49382;-25.924;28.194;2023-02-03T09:22:06;85256.60;;;26.90;37.67
40948;BME280;49382;-25.924;28.194;2023-02-03T09:24:31;85249.22;;;25.67;38.40
40948;BME280;49382;-25.924;28.194;2023-02-03T09:26:57;85243.78;;;25.38;39.15
40948;BME280;49382;-25.924;28.194;2023-02-03T09:29:23;85241.85;;;25.36;38.56
40948;BME280;49382;-25.924;28.194;2023-02-03T09:31:49;85241.81;;;27.89;35.73
40948;BME280;49382;-25.924;28.194;2023-02-03T09:34:14;85243.06;;;28.26;35.42
40948;BME280;49382;-25.924;28.194;2023-02-03T09:36:40;85235.67;;;26.41;37.51
40948;BME280;49382;-25.924;28.194;2023-02-03T09:39:05;85233.55;;;25.76;38.93
40948;BME280;49382;-25.924;28.194;2023-02-03T09:41:45;85232.60;;;26.10;37.88
40948;BME280;49382;-25.924;28.194;2023-02-03T09:44:03;85234.18;;;27.19;37.06
40948;BME280;49382;-25.924;28.194;2023-02-03T09:46:26;85230.27;;;26.99;38.60
40948;BME280;49382;-25.924;28.194;2023-02-03T09:48:52;85229.20;;;25.94;41.40
40948;BME280;49382;-25.924;28.194;2023-02-03T09:51:19;85225.65;;;28.22;37.93
40948;BME280;49382;-25.924;28.194;2023-02-03T09:53:44;85222.74;;;26.88;38.79
40948;BME280;49382;-25.924;28.194;2023-02-03T09:56:08;85224.88;;;27.26;38.06
40948;BME280;49382;-25.924;28.194;2023-02-03T09:58:33;85223.23;;;28.32;38.17
40948;BME280;49382;-25.924;28.194;2023-02-03T10:00:58;85219.11;;;29.03;36.43
40948;BME280;49382;-25.924;28.194;2023-02-03T10:03:30;85221.25;;;27.88;37.64
40948;BME280;49382;-25.924;28.194;2023-02-03T10:08:21;85210.69;;;28.57;34.69
40948;BME280;49382;-25.924;28.194;2023-02-03T10:10:44;85213.99;;;27.27;35.26
40948;BME280;49382;-25.924;28.194;2023-02-03T10:13:13;85216.85;;;28.28;36.43
40948;BME280;49382;-25.924;28.194;2023-02-03T10:17:59;85207.99;;;28.56;37.34
40948;BME280;49382;-25.924;28.194;2023-02-03T10:20:28;85211.91;;;29.80;37.14
40948;BME280;49382;-25.924;28.194;2023-02-03T10:22:53;85202.38;;;28.77;38.71
40948;BME280;49382;-25.924;28.194;2023-02-03T10:25:18;85199.44;;;27.28;38.39
40948;BME280;49382;-25.924;28.194;2023-02-03T10:27:41;85198.84;;;29.40;36.79
40948;BME280;49382;-25.924;28.194;2023-02-03T10:30:18;85192.00;;;28.09;35.85
40948;BME280;49382;-25.924;28.194;2023-02-03T10:32:31;85189.03;;;28.15;36.36
40948;BME280;49382;-25.924;28.194;2023-02-03T10:34:57;85189.14;;;29.23;35.77
40948;BME280;49382;-25.924;28.194;2023-02-03T10:37:27;85180.43;;;28.64;37.40
40948;BME280;49382;-25.924;28.194;2023-02-03T10:39:50;85171.64;;;28.02;36.83
40948;BME280;49382;-25.924;28.194;2023-02-03T10:42:14;85170.65;;;29.18;36.51
40948;BME280;49382;-25.924;28.194;2023-02-03T10:44:41;85167.02;;;28.31;37.18
40948;BME280;49382;-25.924;28.194;2023-02-03T10:47:14;85163.70;;;28.29;36.69
40948;BME280;49382;-25.924;28.194;2023-02-03T10:49:31;85158.70;;;27.33;38.22
40948;BME280;49382;-25.924;28.194;2023-02-03T10:52:01;85156.15;;;28.36;37.94
40948;BME280;49382;-25.924;28.194;2023-02-03T10:54:28;85153.97;;;28.45;37.31
40948;BME280;49382;-25.924;28.194;2023-02-03T10:56:48;85153.50;;;29.20;35.80
40948;BME280;49382;-25.924;28.194;2023-02-03T11:01:43;85145.95;;;28.32;37.91
40948;BME280;49382;-25.924;28.194;2023-02-03T11:04:19;85146.39;;;28.76;36.73
40948;BME280;49382;-25.924;28.194;2023-02-03T11:06:32;85140.89;;;28.98;35.58
40948;BME280;49382;-25.924;28.194;2023-02-03T11:08:57;85142.46;;;27.74;36.57
40948;BME280;49382;-25.924;28.194;2023-02-03T11:11:24;85145.28;;;28.49;36.12
40948;BME280;49382;-25.924;28.194;2023-02-03T11:13:53;85143.03;;;29.10;35.64
40948;BME280;49382;-25.924;28.194;2023-02-03T11:16:16;85134.48;;;28.09;36.04
40948;BME280;49382;-25.924;28.194;2023-02-03T11:18:44;85131.10;;;29.43;34.85
40948;BME280;49382;-25.924;28.194;2023-02-03T11:21:09;85129.98;;;29.60;34.12
40948;BME280;49382;-25.924;28.194;2023-02-03T11:23:31;85128.07;;;29.91;33.45
40948;BME280;49382;-25.924;28.194;2023-02-03T11:25:57;85128.66;;;29.88;31.48
40948;BME280;49382;-25.924;28.194;2023-02-03T11:28:25;85133.05;;;29.31;32.34
40948;BME280;49382;-25.924;28.194;2023-02-03T11:30:54;85128.92;;;29.49;31.74
40948;BME280;49382;-25.924;28.194;2023-02-03T11:33:18;85127.60;;;30.19;31.53
40948;BME280;49382;-25.924;28.194;2023-02-03T11:38:25;85123.75;;;28.71;29.34
40948;BME280;49382;-25.924;28.194;2023-02-03T11:40:32;85119.86;;;28.23;30.60
40948;BME280;49382;-25.924;28.194;2023-02-03T11:43:02;85128.39;;;28.42;30.51
40948;BME280;49382;-25.924;28.194;2023-02-03T11:45:26;85114.32;;;27.94;30.16
40948;BME280;49382;-25.924;28.194;2023-02-03T11:47:51;85103.89;;;27.85;28.28
40948;BME280;49382;-25.924;28.194;2023-02-03T11:50:21;85101.61;;;27.97;26.99
40948;BME280;49382;-25.924;28.194;2023-02-03T11:55:14;85095.70;;;28.45;26.50
40948;BME280;49382;-25.924;28.194;2023-02-03T11:57:39;85097.13;;;27.68;27.50
40948;BME280;49382;-25.924;28.194;2023-02-03T12:00:03;85101.16;;;28.38;26.90
40948;BME280;49382;-25.924;28.194;2023-02-03T12:02:33;85097.14;;;28.02;28.55
40948;BME280;49382;-25.924;28.194;2023-02-03T12:05:03;85091.02;;;27.26;30.14
40948;BME280;49382;-25.924;28.194;2023-02-03T12:07:23;85090.25;;;26.60;31.10
40948;BME280;49382;-25.924;28.194;2023-02-03T12:09:48;85087.92;;;26.99;30.60
40948;BME280;49382;-25.924;28.194;2023-02-03T12:12:15;85077.83;;;26.81;30.99
40948;BME280;49382;-25.924;28.194;2023-02-03T12:14:43;85069.96;;;27.88;31.27
40948;BME280;49382;-25.924;28.194;2023-02-03T12:17:06;85076.88;;;27.10;33.22
40948;BME280;49382;-25.924;28.194;2023-02-03T12:19:30;85076.25;;;27.19;33.31
40948;BME280;49382;-25.924;28.194;2023-02-03T12:21:52;85087.86;;;25.92;36.49
40948;BME280;49382;-25.924;28.194;2023-02-03T12:24:28;85097.49;;;27.48;35.11
40948;BME280;49382;-25.924;28.194;2023-02-03T12:26:46;85100.56;;;27.20;36.94
40948;BME280;49382;-25.924;28.194;2023-02-03T12:29:10;85105.44;;;26.65;37.37
40948;BME280;49382;-25.924;28.194;2023-02-03T12:31:36;85087.01;;;26.40;39.26
40948;BME280;49382;-25.924;28.194;2023-02-03T12:34:03;85080.78;;;25.43;39.54
40948;BME280;49382;-25.924;28.194;2023-02-03T12:36:27;85098.30;;;24.95;38.42
40948;BME280;49382;-25.924;28.194;2023-02-03T12:38:51;85082.44;;;25.47;35.05
40948;BME280;49382;-25.924;28.194;2023-02-03T12:41:17;85060.24;;;23.48;41.49
40948;BME280;49382;-25.924;28.194;2023-02-03T12:43:42;85055.81;;;23.82;41.04
40948;BME280;49382;-25.924;28.194;2023-02-03T12:46:09;85060.85;;;23.51;41.35
40948;BME280;49382;-25.924;28.194;2023-02-03T12:48:37;85065.05;;;23.91;42.53
40948;BME280;49382;-25.924;28.194;2023-02-03T12:50:59;85060.45;;;22.92;45.11
40948;BME280;49382;-25.924;28.194;2023-02-03T12:53:26;85060.47;;;22.55;47.09